Time;durP1;ratioP1;P1;durP2;ratioP2;P2;SDS_P1;SDS_P2;PMS_P1;PMS_P2;Temp;Humidity;BMP_temperature;BMP_pressure;BME280_temperature;BME280_humidity;BME280_pressure;Samples;Min_cycle;Max_cycle;Signal;HPM_P1;HPM_P2
2023/06/28 00:00:35;;;;;;;;;;;17.80;68.10;;;;;;5053665;28;19927;-87
2023/06/28 00:03:01;;;;;;;;;;;17.80;68.50;;;;;;5053949;28;19917;-88
2023/06/28 00:05:26;;;;;;;;;;;17.80;69.10;;;;;;5039856;28;19923;-87
2023/06/28 00:07:52;;;;;;;;;;;17.80;69.50;;;;;;5065488;28;19952;-86
2023/06/28 00:10:17;;;;;;;;;;;17.80;69.30;;;;;;5047094;28;19916;-87
2023/06/28 00:12:43;;;;;;;;;;;17.80;69.00;;;;;;5042340;28;19909;-87
2023/06/28 00:15:09;;;;;;;;;;;17.80;69.30;;;;;;5042864;28;19927;-86
2023/06/28 00:17:34;;;;;;;;;;;17.70;69.30;;;;;;5045525;28;19908;-87
2023/06/28 00:20:06;;;;;;;;;;;17.70;69.70;;;;;;5046539;28;19912;-87
2023/06/28 00:22:31;;;;;;;;;;;17.60;69.80;;;;;;5040817;28;19916;-87
2023/06/28 00:25:01;;;;;;;;;;;17.60;70.00;;;;;;5054796;28;19913;-87
2023/06/28 00:27:27;;;;;;;;;;;17.60;69.70;;;;;;5053007;28;19928;-87
2023/06/28 00:29:53;;;;;;;;;;;17.60;69.50;;;;;;5047604;28;19917;-87
2023/06/28 00:32:18;;;;;;;;;;;17.70;69.90;;;;;;5050856;28;19908;-87
2023/06/28 00:34:47;;;;;;;;;;;17.60;70.60;;;;;;5062515;28;20337;-87
2023/06/28 00:37:12;;;;;;;;;;;17.40;71.10;;;;;;5053890;28;19913;-87
2023/06/28 00:39:38;;;;;;;;;;;17.50;71.20;;;;;;5054953;28;19927;-87
2023/06/28 00:42:03;;;;;;;;;;;17.40;71.40;;;;;;5045166;28;19908;-87
2023/06/28 00:44:29;;;;;;;;;;;17.50;71.00;;;;;;5033542;28;19912;-86
2023/06/28 00:46:55;;;;;;;;;;;17.50;70.70;;;;;;5045163;28;19971;-87
2023/06/28 00:49:24;;;;;;;;;;;17.40;70.90;;;;;;5065261;28;19905;-87
2023/06/28 00:51:50;;;;;;;;;;;17.50;70.90;;;;;;5046887;28;19998;-86
2023/06/28 00:54:15;;;;;;;;;;;17.40;70.10;;;;;;5045270;28;19984;-86
2023/06/28 00:56:41;;;;;;;;;;;17.40;70.00;;;;;;5051887;28;19924;-87
2023/06/28 00:59:06;;;;;;;;;;;17.40;69.10;;;;;;5044476;28;19912;-87
2023/06/28 01:01:32;;;;;;;;;;;17.50;68.40;;;;;;5053964;28;19917;-86
2023/06/28 01:03:57;;;;;;;;;;;17.50;68.20;;;;;;5050212;28;19946;-87
2023/06/28 01:06:24;;;;;;;;;;;17.60;67.30;;;;;;5070690;28;20366;-87
2023/06/28 01:08:50;;;;;;;;;;;17.50;68.00;;;;;;5067646;28;20297;-87
2023/06/28 01:11:16;;;;;;;;;;;17.50;69.00;;;;;;5057367;28;19919;-87
2023/06/28 01:13:42;;;;;;;;;;;17.50;68.50;;;;;;5063438;28;20107;-87
2023/06/28 01:16:07;;;;;;;;;;;17.40;68.00;;;;;;5046475;28;19919;-87
2023/06/28 01:18:33;;;;;;;;;;;17.40;69.30;;;;;;5051814;28;19920;-87
2023/06/28 01:21:04;;;;;;;;;;;17.30;69.80;;;;;;5061539;28;19916;-87
2023/06/28 01:23:29;;;;;;;;;;;17.30;69.80;;;;;;5047029;28;19912;-87
2023/06/28 01:25:55;;;;;;;;;;;17.30;69.90;;;;;;5070222;28;19962;-87
2023/06/28 01:28:21;;;;;;;;;;;17.40;70.20;;;;;;5066581;28;19920;-87
2023/06/28 01:30:48;;;;;;;;;;;17.60;69.50;;;;;;5052991;28;19912;-86
2023/06/28 01:33:14;;;;;;;;;;;17.50;69.90;;;;;;5071251;28;19916;-87
2023/06/28 01:35:40;;;;;;;;;;;17.50;70.30;;;;;;5044859;28;19966;-86
2023/06/28 01:38:06;;;;;;;;;;;17.30;71.20;;;;;;5061858;28;20358;-87
2023/06/28 01:40:35;;;;;;;;;;;17.20;71.50;;;;;;5047716;28;19963;-87
2023/06/28 01:43:03;;;;;;;;;;;17.10;71.80;;;;;;5043021;28;19991;-87
2023/06/28 01:45:28;;;;;;;;;;;17.10;72.10;;;;;;5045143;28;20390;-87
2023/06/28 01:47:54;;;;;;;;;;;17.00;72.50;;;;;;5053420;28;19908;-87
2023/06/28 01:50:19;;;;;;;;;;;16.90;72.90;;;;;;5051070;28;20234;-86
2023/06/28 01:52:45;;;;;;;;;;;16.80;73.30;;;;;;5058701;28;19912;-87
2023/06/28 01:55:11;;;;;;;;;;;16.90;72.70;;;;;;5061842;28;19909;-87
2023/06/28 01:57:36;;;;;;;;;;;17.00;72.40;;;;;;5053852;28;19916;-87
2023/06/28 02:00:08;;;;;;;;;;;16.90;72.80;;;;;;5051600;28;20003;-86
2023/06/28 02:02:33;;;;;;;;;;;16.80;73.00;;;;;;5044925;28;19924;-87
2023/06/28 02:04:58;;;;;;;;;;;16.80;73.20;;;;;;5067833;28;19935;-87
2023/06/28 02:07:24;;;;;;;;;;;16.80;73.20;;;;;;5048115;28;19940;-87
2023/06/28 02:09:49;;;;;;;;;;;16.70;73.70;;;;;;5042005;28;19913;-87
2023/06/28 02:12:15;;;;;;;;;;;16.70;74.30;;;;;;5052344;28;20034;-88
2023/06/28 02:14:40;;;;;;;;;;;16.60;74.20;;;;;;5047715;28;19960;-87
2023/06/28 02:17:13;;;;;;;;;;;16.60;74.20;;;;;;5041013;28;19923;-87
2023/06/28 02:19:42;;;;;;;;;;;16.60;74.00;;;;;;5045681;28;19913;-87
2023/06/28 02:22:08;;;;;;;;;;;16.70;73.50;;;;;;5043866;28;19912;-87
2023/06/28 02:24:34;;;;;;;;;;;16.60;73.70;;;;;;5052159;28;20381;-87
2023/06/28 02:27:00;;;;;;;;;;;16.60;74.00;;;;;;5043764;28;19916;-86
2023/06/28 02:29:25;;;;;;;;;;;16.70;73.80;;;;;;5045013;28;20484;-86
2023/06/28 02:31:51;;;;;;;;;;;16.70;72.10;;;;;;5070859;28;19909;-87
2023/06/28 02:34:16;;;;;;;;;;;16.70;72.10;;;;;;5051796;28;20775;-87
2023/06/28 02:36:42;;;;;;;;;;;16.80;71.90;;;;;;5069938;28;19954;-87
2023/06/28 02:39:07;;;;;;;;;;;16.80;71.70;;;;;;5050938;28;19912;-87
2023/06/28 02:41:32;;;;;;;;;;;16.70;72.40;;;;;;5046280;28;19912;-87
2023/06/28 02:43:58;;;;;;;;;;;16.80;72.30;;;;;;5035869;28;20445;-87
2023/06/28 02:46:23;;;;;;;;;;;16.60;73.80;;;;;;5032044;28;19912;-87
2023/06/28 02:48:49;;;;;;;;;;;16.60;74.20;;;;;;5051465;28;19917;-87
2023/06/28 02:51:14;;;;;;;;;;;16.70;74.20;;;;;;5047058;28;20349;-87
2023/06/28 02:53:40;;;;;;;;;;;16.70;74.00;;;;;;5044042;28;20303;-87
2023/06/28 02:56:06;;;;;;;;;;;16.60;73.80;;;;;;5039815;28;19909;-86
2023/06/28 02:58:31;;;;;;;;;;;16.60;73.70;;;;;;5044020;28;19917;-87
2023/06/28 03:00:57;;;;;;;;;;;16.50;74.20;;;;;;5047295;28;19969;-86
2023/06/28 03:03:23;;;;;;;;;;;16.50;74.40;;;;;;5032803;28;19916;-87
2023/06/28 03:05:48;;;;;;;;;;;16.50;74.50;;;;;;5036244;28;19947;-87
2023/06/28 03:08:14;;;;;;;;;;;16.50;74.30;;;;;;5060920;28;19912;-87
2023/06/28 03:10:41;;;;;;;;;;;16.50;74.50;;;;;;5042114;28;21651;-87
2023/06/28 03:13:06;;;;;;;;;;;16.40;74.90;;;;;;5050317;28;19913;-87
2023/06/28 03:15:32;;;;;;;;;;;16.40;75.20;;;;;;5061860;28;20004;-87
2023/06/28 03:17:57;;;;;;;;;;;16.20;75.80;;;;;;5047959;28;20030;-87
2023/06/28 03:20:23;;;;;;;;;;;16.20;75.90;;;;;;5067239;28;20050;-87
2023/06/28 03:22:49;;;;;;;;;;;16.20;76.00;;;;;;5066770;28;19952;-87
2023/06/28 03:25:15;;;;;;;;;;;16.20;76.00;;;;;;5063869;28;19908;-87
2023/06/28 03:27:41;;;;;;;;;;;16.20;76.00;;;;;;5041326;28;19940;-86
2023/06/28 03:30:08;;;;;;;;;;;16.20;75.70;;;;;;5042320;28;19935;-86
2023/06/28 03:32:33;;;;;;;;;;;16.30;75.40;;;;;;5053837;28;20052;-87
2023/06/28 03:34:59;;;;;;;;;;;16.30;75.80;;;;;;5039370;28;20377;-87
2023/06/28 03:37:24;;;;;;;;;;;16.20;76.00;;;;;;5065771;28;19916;-87
2023/06/28 03:39:49;;;;;;;;;;;16.20;76.50;;;;;;5050582;28;19939;-86
2023/06/28 03:42:15;;;;;;;;;;;16.20;76.30;;;;;;5072475;28;19916;-87
2023/06/28 03:44:40;;;;;;;;;;;16.20;76.30;;;;;;5078180;28;20066;-87
2023/06/28 03:47:06;;;;;;;;;;;16.20;76.30;;;;;;5051814;28;20362;-86
2023/06/28 03:49:32;;;;;;;;;;;16.20;76.40;;;;;;5066776;28;19919;-86
2023/06/28 03:51:57;;;;;;;;;;;16.20;76.50;;;;;;5061105;28;20467;-86
2023/06/28 03:54:23;;;;;;;;;;;16.20;76.40;;;;;;5034676;28;19976;-87
2023/06/28 03:56:49;;;;;;;;;;;16.10;76.50;;;;;;5066849;28;20003;-87
2023/06/28 03:59:14;;;;;;;;;;;16.20;76.70;;;;;;5043402;28;19909;-87
2023/06/28 04:01:40;;;;;;;;;;;16.20;76.60;;;;;;5057117;28;20301;-87
2023/06/28 04:04:05;;;;;;;;;;;16.20;76.60;;;;;;5089342;22;19930;-78
2023/06/28 04:06:31;;;;;;;;;;;16.10;76.60;;;;;;5069244;28;20332;-78
2023/06/28 04:08:56;;;;;;;;;;;16.10;76.80;;;;;;5074549;28;19909;-77
2023/06/28 04:11:22;;;;;;;;;;;16.10;77.10;;;;;;5093540;28;19912;-77
2023/06/28 04:13:47;;;;;;;;;;;16.20;77.50;;;;;;5076052;28;19919;-79
2023/06/28 04:16:12;;;;;;;;;;;16.30;77.20;;;;;;5096394;28;19912;-80
2023/06/28 04:18:38;;;;;;;;;;;16.50;77.00;;;;;;5093422;28;19951;-79
2023/06/28 04:21:03;;;;;;;;;;;16.50;76.50;;;;;;5095240;28;19998;-78
2023/06/28 04:23:29;;;;;;;;;;;16.60;76.50;;;;;;5083047;28;19916;-78
2023/06/28 04:25:57;;;;;;;;;;;16.70;76.40;;;;;;5092836;28;20423;-79
2023/06/28 04:28:23;;;;;;;;;;;16.80;76.20;;;;;;5070003;28;19912;-77
2023/06/28 04:30:49;;;;;;;;;;;16.80;75.70;;;;;;5095479;28;19961;-77
2023/06/28 04:33:14;;;;;;;;;;;16.90;75.50;;;;;;5096906;28;19912;-78
2023/06/28 04:35:44;;;;;;;;;;;16.80;75.80;;;;;;5093399;28;19920;-77
2023/06/28 04:38:13;;;;;;;;;;;17.00;74.20;;;;;;5075835;28;19985;-78
2023/06/28 04:40:39;;;;;;;;;;;17.10;73.70;;;;;;5077395;28;19908;-79
2023/06/28 04:43:09;;;;;;;;;;;17.10;73.00;;;;;;5077252;28;19912;-79
2023/06/28 04:45:37;;;;;;;;;;;17.10;72.80;;;;;;5096163;28;20379;-78
2023/06/28 04:48:04;;;;;;;;;;;17.10;72.20;;;;;;5096142;28;19912;-79
2023/06/28 04:50:30;;;;;;;;;;;17.10;72.40;;;;;;5075161;28;19921;-79
2023/06/28 04:52:55;;;;;;;;;;;17.00;73.20;;;;;;5095491;28;19912;-78
2023/06/28 04:55:21;;;;;;;;;;;17.00;73.60;;;;;;5078058;28;19994;-78
2023/06/28 04:57:46;;;;;;;;;;;16.90;74.70;;;;;;5096774;28;19930;-78
2023/06/28 05:00:12;;;;;;;;;;;16.90;75.20;;;;;;5076535;28;19912;-78
2023/06/28 05:02:38;;;;;;;;;;;16.90;75.10;;;;;;5091754;28;20424;-79
2023/06/28 05:05:03;;;;;;;;;;;17.00;74.60;;;;;;5095415;28;19957;-80
2023/06/28 05:07:29;;;;;;;;;;;17.00;74.60;;;;;;5073058;28;19968;-80
2023/06/28 05:09:54;;;;;;;;;;;17.00;75.10;;;;;;5077757;28;19912;-80
2023/06/28 05:12:20;;;;;;;;;;;17.00;75.00;;;;;;5077303;28;19916;-79
2023/06/28 05:14:45;;;;;;;;;;;17.00;75.10;;;;;;5076646;28;19916;-80
2023/06/28 05:17:11;;;;;;;;;;;17.10;74.80;;;;;;5077481;28;19915;-78
2023/06/28 05:19:36;;;;;;;;;;;17.10;74.90;;;;;;5094181;28;19923;-79
2023/06/28 05:22:02;;;;;;;;;;;17.30;74.30;;;;;;5085901;28;20337;-79
2023/06/28 05:24:28;;;;;;;;;;;17.30;74.00;;;;;;5074460;28;19912;-78
2023/06/28 05:26:53;;;;;;;;;;;17.30;74.20;;;;;;5074096;28;19976;-79
2023/06/28 05:29:19;;;;;;;;;;;17.50;74.00;;;;;;5089036;28;20375;-80
2023/06/28 05:31:45;;;;;;;;;;;17.50;73.70;;;;;;5070036;28;19975;-79
2023/06/28 05:34:11;;;;;;;;;;;17.60;73.20;;;;;;5094218;28;19916;-77
2023/06/28 05:36:36;;;;;;;;;;;17.80;72.30;;;;;;5073210;28;19916;-80
2023/06/28 05:39:02;;;;;;;;;;;18.00;71.90;;;;;;5065045;28;20376;-77
2023/06/28 05:41:28;;;;;;;;;;;18.10;71.90;;;;;;5072729;28;19958;-78
2023/06/28 05:43:54;;;;;;;;;;;18.20;70.30;;;;;;5073921;28;19912;-77
2023/06/28 05:46:19;;;;;;;;;;;18.30;70.60;;;;;;5071654;28;20310;-77
2023/06/28 05:48:46;;;;;;;;;;;18.40;69.20;;;;;;5066028;28;19923;-79
2023/06/28 05:51:12;;;;;;;;;;;18.30;69.30;;;;;;5090731;28;20034;-79
2023/06/28 05:53:38;;;;;;;;;;;18.30;69.20;;;;;;5073928;28;19965;-78
2023/06/28 05:56:04;;;;;;;;;;;18.30;69.90;;;;;;5070551;28;20523;-78
2023/06/28 05:58:30;;;;;;;;;;;18.40;70.70;;;;;;5069237;28;20027;-76
2023/06/28 06:00:55;;;;;;;;;;;18.50;70.50;;;;;;5084409;28;19934;-78
2023/06/28 06:03:21;;;;;;;;;;;18.50;70.10;;;;;;5068230;28;19927;-77
2023/06/28 06:05:46;;;;;;;;;;;18.60;69.80;;;;;;5086199;28;19920;-78
2023/06/28 06:08:12;;;;;;;;;;;18.60;69.60;;;;;;5069320;28;19990;-79
2023/06/28 06:10:37;;;;;;;;;;;18.60;69.10;;;;;;5089284;28;20819;-78
2023/06/28 06:13:03;;;;;;;;;;;18.70;69.20;;;;;;5090880;28;20277;-79
2023/06/28 06:15:28;;;;;;;;;;;18.60;69.70;;;;;;5070948;28;19912;-77
2023/06/28 06:17:54;;;;;;;;;;;18.60;69.20;;;;;;5068420;28;19912;-78
2023/06/28 06:20:19;;;;;;;;;;;18.60;69.30;;;;;;5071647;28;19939;-78
2023/06/28 06:22:45;;;;;;;;;;;18.60;68.80;;;;;;5088747;28;20010;-78
2023/06/28 06:25:11;;;;;;;;;;;18.60;69.20;;;;;;5092066;28;19912;-77
2023/06/28 06:27:37;;;;;;;;;;;18.70;69.30;;;;;;5094157;28;20319;-79
2023/06/28 06:30:02;;;;;;;;;;;18.80;67.70;;;;;;5077068;28;19911;-79
2023/06/28 06:32:28;;;;;;;;;;;18.70;68.50;;;;;;5071867;28;20384;-79
2023/06/28 06:34:57;;;;;;;;;;;18.80;69.20;;;;;;5079447;28;19912;-77
2023/06/28 06:37:23;;;;;;;;;;;18.70;69.00;;;;;;5095969;28;20011;-78
2023/06/28 06:39:49;;;;;;;;;;;18.80;67.50;;;;;;5094980;28;19956;-79
2023/06/28 06:42:15;;;;;;;;;;;18.80;67.70;;;;;;5076226;28;19912;-80
2023/06/28 06:44:40;;;;;;;;;;;18.80;66.90;;;;;;5072786;28;20138;-81
2023/06/28 06:47:06;;;;;;;;;;;18.70;66.80;;;;;;5095116;28;20010;-80
2023/06/28 06:49:32;;;;;;;;;;;18.60;67.30;;;;;;5094099;28;19912;-80
2023/06/28 06:51:57;;;;;;;;;;;18.70;66.30;;;;;;5096276;28;19923;-80
2023/06/28 06:54:24;;;;;;;;;;;18.60;65.10;;;;;;5073253;28;20391;-80
2023/06/28 06:56:50;;;;;;;;;;;18.80;64.60;;;;;;5076547;28;19928;-80
2023/06/28 06:59:19;;;;;;;;;;;18.80;63.30;;;;;;5069173;28;19974;-81
2023/06/28 07:01:45;;;;;;;;;;;18.80;61.10;;;;;;5075207;28;19926;-81
2023/06/28 07:04:11;;;;;;;;;;;18.90;61.30;;;;;;5013265;28;1804868;-79
2023/06/28 07:06:36;;;;;;;;;;;18.90;61.10;;;;;;5076144;28;19979;-79
2023/06/28 07:09:02;;;;;;;;;;;18.90;60.60;;;;;;5080324;28;20007;-77
2023/06/28 07:11:28;;;;;;;;;;;18.80;61.40;;;;;;5087769;28;19919;-77
2023/06/28 07:13:53;;;;;;;;;;;19.00;60.60;;;;;;5089961;28;19979;-78
2023/06/28 07:16:19;;;;;;;;;;;19.00;60.20;;;;;;5093163;28;20383;-79
2023/06/28 07:18:44;;;;;;;;;;;19.10;59.40;;;;;;5078750;28;19912;-80
2023/06/28 07:21:12;;;;;;;;;;;19.00;60.40;;;;;;5077262;28;19916;-81
2023/06/28 07:23:37;;;;;;;;;;;19.10;59.50;;;;;;5078362;28;19915;-80
2023/06/28 07:26:02;;;;;;;;;;;19.20;59.80;;;;;;5096243;28;19912;-81
2023/06/28 07:28:28;;;;;;;;;;;19.20;59.70;;;;;;5074871;28;19916;-80
2023/06/28 07:30:54;;;;;;;;;;;19.20;59.10;;;;;;5075740;28;20424;-78
2023/06/28 07:33:21;;;;;;;;;;;19.30;58.40;;;;;;5087101;28;19924;-82
2023/06/28 07:35:47;;;;;;;;;;;19.50;58.80;;;;;;5062591;28;19949;-81
2023/06/28 07:38:12;;;;;;;;;;;19.70;58.10;;;;;;5069499;28;19912;-80
2023/06/28 07:40:38;;;;;;;;;;;19.60;58.60;;;;;;5070394;28;19913;-79
2023/06/28 07:43:03;;;;;;;;;;;19.50;58.80;;;;;;5072454;28;19990;-77
2023/06/28 07:45:29;;;;;;;;;;;19.50;59.70;;;;;;5082806;28;19923;-80
2023/06/28 07:47:54;;;;;;;;;;;19.50;59.90;;;;;;5093669;28;19934;-79
2023/06/28 07:50:20;;;;;;;;;;;19.60;60.20;;;;;;5095404;28;19916;-78
2023/06/28 07:52:46;;;;;;;;;;;19.60;59.80;;;;;;5094088;28;20384;-80
2023/06/28 07:55:11;;;;;;;;;;;19.60;60.30;;;;;;5075196;28;19916;-80
2023/06/28 07:57:37;;;;;;;;;;;19.60;60.90;;;;;;5075158;28;19912;-80
2023/06/28 08:00:05;;;;;;;;;;;19.60;60.90;;;;;;5073972;28;19943;-78
2023/06/28 08:02:31;;;;;;;;;;;19.60;61.20;;;;;;5076697;28;19919;-78
2023/06/28 08:04:58;;;;;;;;;;;19.50;60.70;;;;;;5073993;28;19920;-78
2023/06/28 08:07:24;;;;;;;;;;;19.50;60.40;;;;;;5092235;28;19916;-79
2023/06/28 08:09:49;;;;;;;;;;;19.50;60.20;;;;;;5095521;28;19954;-79
2023/06/28 08:12:15;;;;;;;;;;;19.60;60.30;;;;;;5067880;28;19934;-79
2023/06/28 08:14:40;;;;;;;;;;;19.60;60.60;;;;;;5075254;28;20204;-80
2023/06/28 08:17:06;;;;;;;;;;;19.70;59.20;;;;;;5090610;28;20460;-78
2023/06/28 08:19:31;;;;;;;;;;;19.60;59.50;;;;;;5094268;28;20433;-79
2023/06/28 08:21:58;;;;;;;;;;;19.70;59.20;;;;;;5094346;28;19938;-78
2023/06/28 08:24:23;;;;;;;;;;;19.50;59.50;;;;;;5077187;28;19916;-78
2023/06/28 08:26:49;;;;;;;;;;;19.40;60.40;;;;;;5076486;28;19920;-78
2023/06/28 08:29:16;;;;;;;;;;;19.30;59.90;;;;;;5094576;28;20303;-80
2023/06/28 08:31:42;;;;;;;;;;;19.30;60.20;;;;;;5093380;28;20022;-78
2023/06/28 08:34:07;;;;;;;;;;;19.50;60.70;;;;;;5092505;28;19937;-78
2023/06/28 08:36:33;;;;;;;;;;;19.60;59.80;;;;;;5093382;28;19923;-78
2023/06/28 08:38:58;;;;;;;;;;;19.70;60.00;;;;;;5089875;28;19912;-79
2023/06/28 08:41:24;;;;;;;;;;;19.70;60.10;;;;;;5090751;28;19942;-78
2023/06/28 08:43:53;;;;;;;;;;;19.70;60.60;;;;;;5092435;28;20367;-77
2023/06/28 08:46:18;;;;;;;;;;;19.80;61.20;;;;;;5074731;28;20189;-78
2023/06/28 08:48:45;;;;;;;;;;;19.90;60.40;;;;;;5075680;28;19916;-78
2023/06/28 08:51:12;;;;;;;;;;;20.00;60.30;;;;;;5074668;28;19962;-79
2023/06/28 08:53:43;;;;;;;;;;;20.30;59.60;;;;;;5068135;28;19912;-81
2023/06/28 08:56:09;;;;;;;;;;;20.40;58.70;;;;;;5088050;28;19919;-79
2023/06/28 08:58:35;;;;;;;;;;;20.50;58.60;;;;;;5101491;28;19912;-78
2023/06/28 09:01:00;;;;;;;;;;;20.50;57.60;;;;;;5075786;28;19920;-76
2023/06/28 09:03:27;;;;;;;;;;;20.50;57.40;;;;;;5094559;28;19974;-76
2023/06/28 09:05:54;;;;;;;;;;;20.50;56.20;;;;;;5082462;28;19916;-77
2023/06/28 09:08:19;;;;;;;;;;;20.40;56.40;;;;;;5079396;28;20484;-79
2023/06/28 09:10:45;;;;;;;;;;;20.30;56.80;;;;;;5084622;28;19958;-80
2023/06/28 09:13:19;;;;;;;;;;;20.20;57.50;;;;;;5103821;28;19919;-80
2023/06/28 09:15:44;;;;;;;;;;;20.10;58.10;;;;;;5101264;28;19913;-79
2023/06/28 09:18:10;;;;;;;;;;;20.00;59.40;;;;;;5083655;28;19923;-79
2023/06/28 09:20:38;;;;;;;;;;;20.00;61.20;;;;;;5078706;28;19926;-84
2023/06/28 09:23:04;;;;;;;;;;;20.10;62.50;;;;;;5093948;28;19912;-79
2023/06/28 09:25:31;;;;;;;;;;;20.10;65.30;;;;;;5071353;28;19936;-80
2023/06/28 09:27:57;;;;;;;;;;;20.10;66.70;;;;;;5073176;28;19920;-79
2023/06/28 09:30:23;;;;;;;;;;;20.20;67.90;;;;;;5081413;28;19909;-80
2023/06/28 09:32:52;;;;;;;;;;;20.40;69.20;;;;;;5095511;28;20255;-78
2023/06/28 09:35:17;;;;;;;;;;;20.20;65.90;;;;;;5075590;28;20259;-80
2023/06/28 09:37:46;;;;;;;;;;;20.20;68.00;;;;;;5077135;28;19916;-80
2023/06/28 09:40:14;;;;;;;;;;;20.20;67.90;;;;;;5094669;28;20050;-79
2023/06/28 09:42:44;;;;;;;;;;;20.20;67.30;;;;;;5075914;28;19912;-79
2023/06/28 09:45:10;;;;;;;;;;;20.30;67.60;;;;;;5096414;28;19916;-80
2023/06/28 09:47:36;;;;;;;;;;;20.30;65.90;;;;;;5096219;28;19927;-80
2023/06/28 09:50:02;;;;;;;;;;;20.30;66.30;;;;;;5076890;28;19922;-78
2023/06/28 09:52:27;;;;;;;;;;;20.30;64.70;;;;;;5076107;28;20336;-79
2023/06/28 09:54:56;;;;;;;;;;;20.40;65.00;;;;;;5076940;28;19938;-80
2023/06/28 09:57:21;;;;;;;;;;;20.30;64.70;;;;;;5077181;28;19916;-79
2023/06/28 09:59:48;;;;;;;;;;;20.50;65.30;;;;;;5077934;28;19934;-79
2023/06/28 10:02:16;;;;;;;;;;;20.60;63.90;;;;;;5077298;28;19912;-79
2023/06/28 10:04:42;;;;;;;;;;;20.70;63.10;;;;;;5094262;28;20376;-79
2023/06/28 10:07:09;;;;;;;;;;;20.80;64.00;;;;;;5096089;28;20053;-79
2023/06/28 10:09:38;;;;;;;;;;;21.10;62.90;;;;;;5077712;28;19908;-79
2023/06/28 10:12:10;;;;;;;;;;;21.10;61.90;;;;;;5077705;28;19947;-79
2023/06/28 10:14:38;;;;;;;;;;;21.10;61.80;;;;;;5077595;28;20340;-79
2023/06/28 10:17:04;;;;;;;;;;;21.20;62.10;;;;;;5077338;28;19915;-79
2023/06/28 10:19:30;;;;;;;;;;;21.10;62.30;;;;;;5076335;28;19915;-80
2023/06/28 10:21:56;;;;;;;;;;;21.30;62.30;;;;;;5077490;28;19912;-79
2023/06/28 10:24:22;;;;;;;;;;;21.30;60.70;;;;;;5077770;28;19918;-80
2023/06/28 10:26:48;;;;;;;;;;;21.20;61.70;;;;;;5088280;28;20010;-79
2023/06/28 10:29:14;;;;;;;;;;;21.20;61.80;;;;;;5099515;28;19908;-79
2023/06/28 10:31:39;;;;;;;;;;;21.20;61.60;;;;;;5081544;28;20261;-80
2023/06/28 10:34:06;;;;;;;;;;;21.40;62.40;;;;;;5081675;28;19995;-79
2023/06/28 10:36:32;;;;;;;;;;;21.40;60.70;;;;;;5098004;28;19931;-79
2023/06/28 10:38:58;;;;;;;;;;;21.40;61.20;;;;;;5097708;28;20330;-80
2023/06/28 10:41:24;;;;;;;;;;;21.40;61.60;;;;;;5096017;28;19914;-79
2023/06/28 10:44:01;;;;;;;;;;;21.40;60.80;;;;;;5078171;28;20362;-78
2023/06/28 10:46:26;;;;;;;;;;;21.60;60.20;;;;;;5074790;28;19923;-79
2023/06/28 10:48:53;;;;;;;;;;;21.70;59.80;;;;;;5074994;28;20286;-79
2023/06/28 10:51:19;;;;;;;;;;;21.60;59.90;;;;;;5075053;28;19912;-79
2023/06/28 10:53:51;;;;;;;;;;;21.80;59.80;;;;;;5093385;28;19987;-79
2023/06/28 10:56:18;;;;;;;;;;;22.00;59.90;;;;;;5073976;28;19912;-79
2023/06/28 10:58:45;;;;;;;;;;;21.90;59.00;;;;;;5092429;28;19916;-78
2023/06/28 11:01:11;;;;;;;;;;;21.80;59.60;;;;;;5092424;28;19916;-78
2023/06/28 11:03:37;;;;;;;;;;;21.80;59.20;;;;;;5092516;28;20401;-78
2023/06/28 11:06:03;;;;;;;;;;;21.80;59.40;;;;;;5091675;28;19916;-79
2023/06/28 11:08:36;;;;;;;;;;;21.70;59.90;;;;;;5091079;28;20360;-79
2023/06/28 11:11:02;;;;;;;;;;;21.50;59.50;;;;;;5091174;28;19958;-79
2023/06/28 11:13:46;;;;;;;;;;;21.30;60.80;;;;;;5095185;28;19908;-79
2023/06/28 11:16:15;;;;;;;;;;;21.20;61.00;;;;;;5077782;28;19948;-80
2023/06/28 11:18:41;;;;;;;;;;;21.10;61.40;;;;;;5076446;28;19919;-78
2023/06/28 11:21:12;;;;;;;;;;;21.10;61.70;;;;;;5098350;28;19916;-79
2023/06/28 11:23:39;;;;;;;;;;;21.10;61.30;;;;;;5100080;28;19923;-79
2023/06/28 11:26:06;;;;;;;;;;;21.00;61.20;;;;;;5099833;28;19979;-79
2023/06/28 11:28:32;;;;;;;;;;;21.00;61.20;;;;;;5074059;28;19913;-80
2023/06/28 11:31:17;;;;;;;;;;;21.10;61.20;;;;;;5098743;28;19920;-80
2023/06/28 11:33:42;;;;;;;;;;;21.00;61.20;;;;;;5077522;28;19941;-81
2023/06/28 11:36:09;;;;;;;;;;;21.00;61.20;;;;;;5100602;28;20086;-80
2023/06/28 11:38:35;;;;;;;;;;;21.10;62.60;;;;;;5082175;28;20299;-80
2023/06/28 11:41:00;;;;;;;;;;;21.10;62.00;;;;;;5100384;28;19923;-80
2023/06/28 11:43:26;;;;;;;;;;;21.10;61.50;;;;;;5100149;28;19943;-81
2023/06/28 11:45:51;;;;;;;;;;;21.10;61.40;;;;;;5084150;28;20386;-80
2023/06/28 11:48:17;;;;;;;;;;;21.10;61.90;;;;;;5095707;28;19923;-80
2023/06/28 11:50:43;;;;;;;;;;;21.00;62.10;;;;;;5083358;28;19988;-81
2023/06/28 11:53:08;;;;;;;;;;;21.00;62.10;;;;;;5085285;28;20329;-81
2023/06/28 11:55:35;;;;;;;;;;;20.90;63.00;;;;;;5088053;28;19979;-80
2023/06/28 11:58:00;;;;;;;;;;;20.90;62.60;;;;;;5088532;28;19995;-80
2023/06/28 12:00:35;;;;;;;;;;;20.80;62.50;;;;;;5087167;28;19911;-81
2023/06/28 12:03:01;;;;;;;;;;;20.90;62.30;;;;;;5089907;28;19916;-81
2023/06/28 12:05:26;;;;;;;;;;;20.90;62.30;;;;;;5087255;28;19988;-81
2023/06/28 12:07:53;;;;;;;;;;;20.90;61.80;;;;;;5087624;28;19920;-81
2023/06/28 12:10:18;;;;;;;;;;;21.10;61.80;;;;;;5088083;28;20041;-80
2023/06/28 12:12:44;;;;;;;;;;;21.10;61.40;;;;;;5105887;28;19912;-81
2023/06/28 12:15:13;;;;;;;;;;;21.10;61.90;;;;;;5086670;28;19923;-81
2023/06/28 12:17:42;;;;;;;;;;;21.10;61.70;;;;;;5084876;28;19912;-81
2023/06/28 12:20:08;;;;;;;;;;;21.30;61.40;;;;;;5106104;28;19919;-80
2023/06/28 12:22:44;;;;;;;;;;;21.30;61.40;;;;;;5086216;28;20279;-81
2023/06/28 12:25:10;;;;;;;;;;;21.30;61.30;;;;;;5085668;28;19916;-80
2023/06/28 12:27:38;;;;;;;;;;;21.50;60.80;;;;;;5083582;28;19938;-80
2023/06/28 12:30:07;;;;;;;;;;;21.60;60.90;;;;;;5084847;28;20007;-80
2023/06/28 12:32:33;;;;;;;;;;;21.80;60.50;;;;;;5101604;28;19912;-81
2023/06/28 12:34:58;;;;;;;;;;;22.00;59.20;;;;;;5082876;28;20366;-81
2023/06/28 12:37:33;;;;;;;;;;;22.10;58.50;;;;;;5103479;28;19915;-80
2023/06/28 12:40:08;;;;;;;;;;;22.10;59.60;;;;;;5093080;28;20383;-80
2023/06/28 12:42:34;;;;;;;;;;;22.40;58.00;;;;;;5087866;28;19964;-81
2023/06/28 12:44:59;;;;;;;;;;;22.40;57.00;;;;;;5088457;28;20429;-83
2023/06/28 12:47:29;;;;;;;;;;;22.50;57.30;;;;;;5098553;28;19920;-80
2023/06/28 12:49:55;;;;;;;;;;;22.40;57.10;;;;;;5078706;28;19926;-79
2023/06/28 12:52:21;;;;;;;;;;;22.20;57.00;;;;;;5082073;28;19956;-80
2023/06/28 12:54:47;;;;;;;;;;;22.20;57.20;;;;;;5083117;28;19919;-80
2023/06/28 12:57:12;;;;;;;;;;;22.30;57.00;;;;;;5093816;28;19912;-81
2023/06/28 12:59:39;;;;;;;;;;;22.40;57.10;;;;;;5103580;28;19912;-81
2023/06/28 13:02:05;;;;;;;;;;;22.30;57.40;;;;;;5102426;28;19912;-82
2023/06/28 13:04:32;;;;;;;;;;;22.30;57.50;;;;;;5102798;28;19934;-80
2023/06/28 13:06:58;;;;;;;;;;;22.40;56.50;;;;;;5080913;28;19916;-81
2023/06/28 13:09:23;;;;;;;;;;;22.40;56.50;;;;;;5084033;28;20348;-81
2023/06/28 13:11:49;;;;;;;;;;;22.40;57.10;;;;;;5100473;28;19920;-81
2023/06/28 13:14:15;;;;;;;;;;;22.50;56.90;;;;;;5102498;28;20316;-81
2023/06/28 13:16:44;;;;;;;;;;;22.60;56.80;;;;;;5083063;28;19923;-81
2023/06/28 13:19:09;;;;;;;;;;;22.70;56.60;;;;;;5081635;28;19931;-81
2023/06/28 13:21:35;;;;;;;;;;;22.60;56.40;;;;;;5101314;28;20029;-81
2023/06/28 13:24:00;;;;;;;;;;;22.60;56.50;;;;;;5083548;28;20319;-81
2023/06/28 13:26:26;;;;;;;;;;;22.60;56.30;;;;;;5081164;28;20264;-81
2023/06/28 13:28:51;;;;;;;;;;;22.70;56.40;;;;;;5082286;28;19912;-80
2023/06/28 13:31:17;;;;;;;;;;;22.90;56.00;;;;;;5078637;28;19923;-80
2023/06/28 13:33:42;;;;;;;;;;;22.70;56.40;;;;;;5079323;28;19962;-80
2023/06/28 13:36:08;;;;;;;;;;;22.60;56.10;;;;;;5079326;28;19912;-84
2023/06/28 13:38:33;;;;;;;;;;;22.50;56.40;;;;;;5099022;28;20286;-83
2023/06/28 13:40:59;;;;;;;;;;;22.40;56.70;;;;;;5080360;28;19956;-84
2023/06/28 13:43:24;;;;;;;;;;;22.50;57.20;;;;;;5079510;28;19916;-83
2023/06/28 13:45:50;;;;;;;;;;;22.50;56.80;;;;;;5098689;28;19915;-85
2023/06/28 13:48:15;;;;;;;;;;;22.50;57.10;;;;;;5091019;28;19919;-81
2023/06/28 13:50:41;;;;;;;;;;;22.60;56.90;;;;;;5105669;28;19923;-82
2023/06/28 13:53:06;;;;;;;;;;;22.60;56.80;;;;;;5091165;28;19963;-82
2023/06/28 13:55:32;;;;;;;;;;;22.60;57.10;;;;;;5088177;28;20455;-81
2023/06/28 13:57:58;;;;;;;;;;;22.80;57.90;;;;;;5086731;28;19973;-82
2023/06/28 14:00:23;;;;;;;;;;;23.00;56.20;;;;;;5100648;28;19916;-84
2023/06/28 14:02:56;;;;;;;;;;;23.00;56.10;;;;;;5045632;28;20287;-82
2023/06/28 14:05:22;;;;;;;;;;;22.90;55.70;;;;;;5041450;28;19953;-84
2023/06/28 14:07:47;;;;;;;;;;;23.00;56.50;;;;;;5023678;28;20330;-83
2023/06/28 14:10:13;;;;;;;;;;;23.10;56.60;;;;;;5041272;28;19920;-84